Latest Weather Observations for Tarcoola

IDS60801

Issued at 1:31 pm CST Wednesday 24 August 2016 (issued every 30 minutes, with the page automatically refreshed every 10 minutes)

About weather observations | Map of weather stations | Latest weather observations for SA | Other Formats
Station Details ID: 016098 Name: TARCOOLA AERO Lat: -30.71 Lon: 134.58 Height: 123.0 m
Data from the previous 72 hours. | See also: Recent months at Tarcoola
Date/Time
CST
Temp
°C
App
Temp
°C
Dew
Point
°C
Rel
Hum
%
Delta-T
°C
Wind Press
QNH
hPa
Press
MSL
hPa
Rain since
9am
mm
Dir  Spd
km/h
Gust
km/h
Spd
kts
Gust
kts
24/01:30pm 18.8 13.3 3.8 37 7.1 WNW 22 30 12 16 1015.7 1015.7 0.0
24/01:00pm 17.0 12.1 4.3 43 6.0 WNW 19 26 10 14 1016.2 1016.2 0.0
24/12:30pm 17.4 13.1 3.3 39 6.5 WNW 15 20 8 11 1016.6 1016.6 0.0
24/12:00pm 17.5 13.3 3.8 40 6.4 NW 15 24 8 13 1017.0 1017.0 0.0
24/11:30am 16.8 13.1 4.5 44 5.8 NW 13 20 7 11 1017.4 1017.4 0.0
24/11:00am 16.2 12.5 4.3 45 5.6 WNW 13 20 7 11 1017.7 1017.7 0.0
24/10:30am 15.2 11.6 4.9 50 4.9 WSW 13 20 7 11 1017.9 1017.9 0.0
24/10:00am 14.1 11.1 6.0 58 3.9 WSW 11 15 6 8 1018.0 1018.0 0.0
24/09:30am 12.4 8.9 5.6 63 3.2 W 13 17 7 9 1018.0 1018.0 0.0
24/09:00am 10.9 8.1 5.2 68 2.6 WSW 9 15 5 8 1018.0 1018.0 0.6
24/08:30am 8.6 4.9 4.6 76 1.8 WSW 13 19 7 10 1018.0 1018.0 0.6
24/08:00am 6.4 4.0 4.4 87 0.9 WSW 6 13 3 7 1017.8 1017.8 0.6
24/07:30am 4.0 2.4 2.7 91 0.5 CALM 0 0 0 0 1017.4 1017.4 0.6
24/07:00am 3.9 0.6 2.6 91 0.5 NNE 9 9 5 5 1017.1 1017.1 0.6
24/06:30am 4.1 2.6 2.8 91 0.5 CALM 0 0 0 0 1016.7 1016.7 0.6
24/06:00am 3.6 1.9 2.0 89 0.6 CALM 0 0 0 0 1016.4 1016.4 0.6
24/05:30am 4.4 2.9 2.8 89 0.7 CALM 0 0 0 0 1016.2 1016.2 0.6
24/05:00am 5.2 3.8 3.5 89 0.7 CALM 0 0 0 0 1015.9 1015.9 0.6
24/04:30am 5.3 2.8 3.6 89 0.7 SSW 6 7 3 4 1016.0 1016.0 0.6
24/04:00am 5.6 4.2 3.8 88 0.8 CALM 0 0 0 0 1016.3 1016.3 0.6
24/03:30am 5.9 3.8 4.1 88 0.8 WSW 4 7 2 4 1016.3 1016.3 0.6
24/03:00am 5.7 4.3 3.7 87 0.8 CALM 0 0 0 0 1016.5 1016.5 0.6
24/02:30am 5.5 2.7 3.2 85 1.0 S 7 9 4 5 1016.4 1016.4 0.6
24/02:00am 5.8 4.4 3.3 84 1.0 CALM 0 0 0 0 1016.6 1016.6 0.6
24/01:30am 7.0 4.4 4.1 82 1.3 WSW 7 9 4 5 1016.6 1016.6 0.6
24/01:00am 7.9 5.0 4.7 80 1.4 SW 9 13 5 7 1016.5 1016.5 0.6
24/12:30am 9.3 6.1 4.9 74 2.0 SW 11 13 6 7 1016.6 1016.6 0.6
24/12:00am 9.6 8.4 6.5 81 1.4 SSW 2 7 1 4 1016.6 1016.6 0.6
 
Date/Time
CST
Temp
°C
App
Temp
°C
Dew
Point
°C
Rel
Hum
%
Delta-T
°C
Wind Press
QNH
hPa
Press
MSL
hPa
Rain since
9am
mm
Dir  Spd
km/h
Gust
km/h
Spd
kts
Gust
kts
23/11:30pm 10.2 8.2 6.2 76 1.9 ESE 6 9 3 5 1016.6 1016.6 0.6
23/11:00pm 10.3 7.7 6.3 76 1.9 SW 9 9 5 5 1016.9 1016.9 0.6
23/10:30pm 10.4 7.9 6.4 76 1.9 WSW 9 11 5 6 1017.0 1017.0 0.6
23/10:00pm 10.0 8.8 6.3 78 1.7 WSW 2 9 1 5 1016.9 1016.9 0.6
23/09:30pm 10.3 8.1 5.5 72 2.2 SW 6 7 3 4 1016.8 1016.8 0.6
23/09:00pm 10.8 8.0 5.1 68 2.6 SW 9 11 5 6 1016.8 1016.8 0.6
23/08:30pm 10.3 8.0 5.5 72 2.2 SW 7 9 4 5 1016.6 1016.6 0.6
23/08:00pm 11.3 7.6 4.3 62 3.2 S 13 13 7 7 1016.3 1016.3 0.6
23/07:30pm 11.7 9.1 4.4 61 3.3 SSW 7 9 4 5 1016.0 1016.0 0.6
23/07:00pm 13.4 10.0 4.0 53 4.3 S 11 15 6 8 1015.7 1015.7 0.6
23/06:30pm 13.3 9.6 4.5 55 4.1 WSW 13 15 7 8 1015.3 1015.3 0.6
23/06:00pm 13.6 10.8 5.3 57 3.9 WSW 9 13 5 7 1015.2 1015.2 0.6
23/05:30pm 14.0 11.1 4.6 53 4.4 W 9 11 5 6 1015.0 1015.0 0.6
23/05:00pm 14.7 11.3 3.8 48 5.0 SSW 11 17 6 9 1015.0 1015.0 0.6
23/04:30pm 14.8 10.8 5.1 52 4.6 SW 15 22 8 12 1014.9 1014.9 0.6
23/04:00pm 14.7 12.0 5.5 54 4.4 WSW 9 15 5 8 1014.6 1014.6 0.6
23/03:30pm 13.7 9.1 5.8 59 3.8 WNW 19 24 10 13 1014.1 1014.1 0.6
23/03:00pm 12.3 7.5 7.2 71 2.5 W 22 32 12 17 1014.3 1014.3 0.6
23/02:30pm 13.8 7.3 4.9 55 4.2 WSW 28 39 15 21 1014.0 1014.0 0.0
23/02:00pm 17.5 13.8 -0.2 30 7.7 NE 9 15 5 8 1013.9 1013.9 0.0
23/01:30pm 17.6 12.0 -0.2 30 7.7 ENE 19 28 10 15 1014.1 1014.1 0.0
23/01:00pm 19.2 13.7 0.8 29 8.3 ENE 19 28 10 15 1014.6 1014.6 0.0
23/12:30pm 18.3 13.2 0.9 31 7.8 ENE 17 26 9 14 1015.0 1015.0 0.0
23/12:00pm 18.9 14.5 0.5 29 8.2 NNE 13 26 7 14 1015.3 1015.3 0.0
23/11:30am 18.2 13.6 1.7 33 7.5 NE 15 24 8 13 1015.6 1015.6 0.0
23/11:00am 17.2 14.7 3.8 41 6.3 NE 6 13 3 7 1015.9 1015.9 0.0
23/10:30am 16.1 13.6 3.9 44 5.7 E 6 13 3 7 1016.1 1016.1 0.0
23/10:00am 14.9 12.3 4.0 48 5.0 ENE 7 13 4 7 1016.3 1016.3 0.0
23/09:30am 14.2 11.2 4.2 51 4.6 ENE 9 13 5 7 1016.2 1016.2 0.0
23/09:00am 12.8 9.0 3.7 54 4.1 E 13 15 7 8 1016.1 1016.1 0.0
23/08:30am 11.5 8.3 3.0 56 3.7 ENE 9 13 5 7 1016.0 1016.0 0.0
23/08:00am 9.5 6.7 3.3 65 2.7 E 7 11 4 6 1015.8 1015.8 0.0
23/07:30am 4.6 1.7 2.5 86 0.9 ENE 7 11 4 6 1015.7 1015.7 0.0
23/07:00am 2.5 -0.7 0.6 87 0.7 E 7 11 4 6 1015.4 1015.4 0.0
23/06:30am 2.0 -0.4 -0.2 85 0.8 NNE 2 9 1 5 1015.0 1015.0 0.0
23/06:00am 2.2 0.2 0.1 86 0.8 CALM 0 0 0 0 1014.9 1014.9 0.0
23/05:30am 2.5 0.6 0.4 86 0.8 CALM 0 0 0 0 1014.8 1014.8 0.0
23/05:00am 2.5 0.5 0.2 85 0.9 CALM 0 0 0 0 1014.4 1014.4 0.0
23/04:30am 3.3 1.5 1.0 85 0.9 CALM 0 0 0 0 1014.2 1014.2 0.0
23/04:00am 3.6 1.8 1.2 84 0.9 CALM 0 0 0 0 1014.0 1014.0 0.0
23/03:30am 4.7 1.7 2.2 84 1.0 SSW 7 11 4 6 1014.0 1014.0 0.0
23/03:00am 4.4 0.6 1.9 84 1.0 WSW 11 11 6 6 1014.0 1014.0 0.0
23/02:30am 4.4 1.3 1.6 82 1.1 SW 7 7 4 4 1014.1 1014.1 0.0
23/02:00am 5.4 3.8 2.2 80 1.3 CALM 0 0 0 0 1014.4 1014.4 0.0
23/01:30am 5.5 3.5 2.5 81 1.2 SSE 2 6 1 3 1014.6 1014.6 0.0
23/01:00am 6.0 4.4 2.6 79 1.4 CALM 0 0 0 0 1014.7 1014.7 0.0
23/12:30am 5.8 2.9 2.4 79 1.4 WSW 7 7 4 4 1014.8 1014.8 0.0
23/12:00am 5.7 3.3 2.4 79 1.4 SSW 4 9 2 5 1014.7 1014.7 0.0
 
Date/Time
CST
Temp
°C
App
Temp
°C
Dew
Point
°C
Rel
Hum
%
Delta-T
°C
Wind Press
QNH
hPa
Press
MSL
hPa
Rain since
9am
mm
Dir  Spd
km/h
Gust
km/h
Spd
kts
Gust
kts
22/11:30pm 6.0 4.3 2.1 76 1.6 CALM 0 0 0 0 1014.8 1014.8 0.0
22/11:00pm 6.7 5.1 2.2 73 1.9 CALM 0 0 0 0 1014.9 1014.9 0.0
22/10:30pm 7.6 6.2 3.3 74 1.8 CALM 0 0 0 0 1014.9 1014.9 0.0
22/10:00pm 7.7 5.1 3.0 72 2.0 E 6 7 3 4 1014.9 1014.9 0.0
22/09:30pm 8.4 6.1 2.8 68 2.4 E 4 7 2 4 1014.9 1014.9 0.0
22/09:00pm 9.3 7.8 3.1 65 2.7 CALM 0 0 0 0 1014.8 1014.8 0.0
22/08:30pm 10.7 7.9 3.3 60 3.3 NNE 7 9 4 5 1014.6 1014.6 0.0
22/08:00pm 11.4 8.6 2.9 56 3.7 NE 7 7 4 4 1014.2 1014.2 0.0
22/07:30pm 12.6 9.8 3.3 53 4.2 ENE 7 7 4 4 1013.9 1013.9 0.0
22/07:00pm 13.5 12.1 3.3 50 4.6 CALM 0 0 0 0 1013.7 1013.7 0.0
22/06:30pm 14.9 11.7 2.8 44 5.5 NNE 9 11 5 6 1013.6 1013.6 0.0
22/06:00pm 16.7 12.6 2.0 37 6.6 NNE 13 17 7 9 1013.4 1013.4 0.0
22/05:30pm 17.6 13.0 1.6 34 7.2 NNE 15 20 8 11 1013.1 1013.0 0.0
22/05:00pm 18.2 14.1 2.5 35 7.2 N 13 20 7 11 1012.9 1012.8 0.0
22/04:30pm 18.3 15.1 3.0 36 7.1 N 9 19 5 10 1012.8 1012.7 0.0
22/04:00pm 17.1 15.5 2.3 37 6.7 CALM 0 0 0 0 1012.7 1012.6 0.0
22/03:30pm 17.3 14.5 2.9 38 6.6 N 7 9 4 5 1012.7 1012.6 0.0
22/03:00pm 19.2 16.2 4.2 37 7.2 E 9 17 5 9 1012.8 1012.7 0.0
22/02:30pm 17.3 14.7 3.2 39 6.5 NE 6 13 3 7 1013.1 1013.0 0.0
22/02:00pm 18.2 15.3 4.7 41 6.5 ENE 9 15 5 8 1013.2 1013.1 0.0
22/01:30pm 17.8 15.6 5.1 43 6.1 ENE 6 13 3 7 1013.5 1013.5 0.0
22/01:00pm 17.1 14.9 5.1 45 5.8 NE 6 13 3 7 1014.0 1014.0 0.0
22/12:30pm 16.4 14.2 5.4 48 5.3 NE 6 13 3 7 1014.4 1014.4 0.0
22/12:00pm 16.0 14.3 5.9 51 4.9 SW 4 9 2 5 1014.9 1014.9 0.0
22/11:30am 14.9 12.6 5.7 54 4.4 WNW 7 13 4 7 1015.1 1015.1 0.0
22/11:00am 14.7 12.1 6.3 57 4.1 NW 9 13 5 7 1015.4 1015.4 0.0
22/10:30am 13.2 10.6 6.1 62 3.4 WNW 9 15 5 8 1015.6 1015.6 0.0
22/10:00am 12.6 10.1 6.4 66 3.0 NW 9 13 5 7 1015.5 1015.5 0.0
22/09:30am 11.2 9.9 7.5 78 1.8 NNW 4 9 2 5 1015.5 1015.5 0.0
22/09:00am 8.1 7.3 6.7 91 0.6 CALM 0 0 0 0 1015.4 1015.4 0.0
22/08:30am 5.4 4.2 4.4 93 0.4 CALM 0 0 0 0 1015.2 1015.2 0.0
22/08:00am 4.1 2.6 3.2 94 0.4 CALM 0 0 0 0 1015.0 1015.0 0.0
22/07:30am 2.8 1.1 1.8 93 0.4 CALM 0 0 0 0 1014.5 1014.5 0.0
22/07:00am 2.2 0.0 1.2 93 0.4 WSW 2 7 1 4 1014.0 1014.0 0.0
22/06:30am 1.9 -1.1 0.9 93 0.4 WSW 6 9 3 5 1013.6 1013.6 0.0
22/06:00am 1.9 0.1 0.9 93 0.4 CALM 0 0 0 0 1013.1 1013.0 0.0
22/05:30am 1.9 0.0 0.7 92 0.5 CALM 0 0 0 0 1012.9 1012.8 0.0
22/05:00am 2.5 0.7 1.5 93 0.4 CALM 0 0 0 0 1012.8 1012.7 0.0
22/04:30am 2.7 1.0 1.7 93 0.4 CALM 0 0 0 0 1012.8 1012.7 0.0
22/04:00am 3.0 1.3 1.8 92 0.5 CALM 0 0 0 0 1013.0 1012.9 0.0
22/03:30am 3.1 1.4 1.9 92 0.5 CALM 0 0 0 0 1013.2 1013.1 0.0
22/03:00am 3.1 1.4 1.8 91 0.5 CALM 0 0 0 0 1013.3 1013.2 0.0
22/02:30am 3.9 1.2 2.7 92 0.5 NE 6 7 3 4 1013.5 1013.5 0.0
22/02:00am 4.3 1.1 3.0 91 0.5 NE 9 11 5 6 1013.9 1013.9 0.0
22/01:30am 4.4 1.6 2.9 90 0.6 E 7 7 4 4 1013.9 1013.9 0.0
22/01:00am 5.3 2.8 4.0 91 0.6 E 6 9 3 5 1014.1 1014.1 0.0
22/12:30am 5.6 3.5 4.1 90 0.6 NNE 4 9 2 5 1014.2 1014.2 0.0
22/12:00am 5.8 2.5 4.3 90 0.6 NE 11 13 6 7 1014.5 1014.5 0.0
 
Date/Time
CST
Temp
°C
App
Temp
°C
Dew
Point
°C
Rel
Hum
%
Delta-T
°C
Wind Press
QNH
hPa
Press
MSL
hPa
Rain since
9am
mm
Dir  Spd
km/h
Gust
km/h
Spd
kts
Gust
kts
21/11:30pm 6.2 4.2 4.5 89 0.7 NE 4 11 2 6 1014.6 1014.6 0.0
21/11:00pm 7.0 5.9 5.3 89 0.8 CALM 0 0 0 0 1014.7 1014.7 0.0
21/10:30pm 7.1 6.1 5.4 89 0.8 CALM 0 0 0 0 1014.8 1014.8 0.0
21/10:00pm 7.2 4.5 5.5 89 0.8 WSW 9 13 5 7 1014.9 1014.9 0.0
21/09:30pm 7.8 5.4 5.3 84 1.1 ENE 7 9 4 5 1014.8 1014.8 0.0
21/09:00pm 8.7 7.8 6.2 84 1.2 CALM 0 0 0 0 1014.7 1014.7 0.0
21/08:30pm 9.8 7.8 6.9 82 1.4 NNW 7 9 4 5 1014.8 1014.8 0.0
21/08:00pm 10.3 7.8 6.5 77 1.8 N 9 11 5 6 1014.6 1014.6 0.0
21/07:30pm 11.2 10.4 6.7 74 2.1 CALM 0 0 0 0 1014.4 1014.4 0.0
21/07:00pm 11.5 9.4 6.8 73 2.2 N 7 11 4 6 1013.8 1013.8 0.0
21/06:30pm 12.1 9.3 6.8 70 2.5 N 11 17 6 9 1013.6 1013.6 0.0
21/06:00pm 12.6 8.2 6.6 67 2.9 NNE 19 26 10 14 1012.7 1012.6 0.0
21/05:30pm 12.9 8.4 6.9 67 2.9 NNE 20 26 11 14 1012.5 1012.4 0.0
21/05:00pm 13.4 8.8 6.3 62 3.4 N 20 26 11 14 1013.1 1013.0 0.0
21/04:30pm 13.9 9.3 6.5 61 3.6 N 20 26 11 14 1012.9 1012.8 0.0
21/04:00pm 14.0 9.6 7.3 64 3.3 NNW 20 32 11 17 1012.9 1012.8 0.0
21/03:30pm 14.6 9.2 6.4 58 4.0 NNW 24 32 13 17 1013.0 1012.9 0.0
21/03:00pm 15.5 10.4 6.0 53 4.6 N 22 28 12 15 1012.9 1012.8 0.0
21/02:30pm 16.0 10.0 5.3 49 5.1 N 26 37 14 20 1013.2 1013.1 0.0
21/02:00pm 16.8 11.5 2.8 39 6.4 N 20 26 11 14 1013.4 1013.4 0.0

Other Formats:

Comma delimited format used in spreadsheet applications
http://www.bom.gov.au/fwo/IDS60801/IDS60801.94655.axf

JavaScript Object Notation format (JSON) in row-major order
http://www.bom.gov.au/fwo/IDS60801/IDS60801.94655.json